Time;durP1;ratioP1;P1;durP2;ratioP2;P2;SDS_P1;SDS_P2;PMS_P1;PMS_P2;Temp;Humidity;BMP_temperature;BMP_pressure;BME280_temperature;BME280_humidity;BME280_pressure;Samples;Min_cycle;Max_cycle;Signal;HPM_P1;HPM_P2
2023/09/23 00:01:26;;;;;;;21.08;5.00;;;;;;;;;;5107106;28;20718;-58
2023/09/23 00:03:53;;;;;;;23.77;5.20;;;;;;;;;;5103404;28;20067;-57
2023/09/23 00:06:22;;;;;;;35.92;10.25;;;;;;;;;;5113940;28;20047;-52
2023/09/23 00:08:50;;;;;;;40.58;10.20;;;;;;;;;;5116164;28;20027;-52
2023/09/23 00:11:18;;;;;;;45.95;11.73;;;;;;;;;;5114946;28;20047;-48
2023/09/23 00:13:48;;;;;;;46.22;11.73;;;;;;;;;;5105284;28;20032;-53
2023/09/23 00:16:15;;;;;;;48.10;12.35;;;;;;;;;;5113185;28;20085;-50
2023/09/23 00:18:45;;;;;;;46.65;11.18;;;;;;;;;;5113509;28;20031;-55
2023/09/23 00:21:13;;;;;;;39.92;11.20;;;;;;;;;;5105531;28;20043;-50
2023/09/23 00:23:40;;;;;;;38.97;10.93;;;;;;;;;;5104538;28;20144;-45
2023/09/23 00:26:07;;;;;;;45.78;10.52;;;;;;;;;;5115439;28;20076;-49
2023/09/23 00:28:34;;;;;;;40.45;9.75;;;;;;;;;;5114605;28;20027;-50
2023/09/23 00:31:14;;;;;;;37.38;9.13;;;;;;;;;;5115779;28;20393;-50
2023/09/23 00:33:42;;;;;;;36.60;9.05;;;;;;;;;;5115591;28;20497;-50
2023/09/23 00:36:09;;;;;;;31.90;9.07;;;;;;;;;;5115640;28;20032;-52
2023/09/23 00:38:37;;;;;;;31.67;8.02;;;;;;;;;;5115658;28;20035;-54
2023/09/23 00:41:06;;;;;;;31.23;9.02;;;;;;;;;;5115689;28;20050;-54
2023/09/23 00:43:33;;;;;;;31.05;8.50;;;;;;;;;;5115414;28;20027;-53
2023/09/23 00:46:03;;;;;;;29.98;8.43;;;;;;;;;;5115396;28;20045;-54
2023/09/23 00:48:33;;;;;;;24.60;7.53;;;;;;;;;;5112498;28;20413;-54
2023/09/23 00:51:00;;;;;;;24.95;7.45;;;;;;;;;;5115765;28;20104;-52
2023/09/23 00:53:29;;;;;;;24.75;7.35;;;;;;;;;;5115444;28;20036;-53
2023/09/23 00:55:57;;;;;;;26.55;7.97;;;;;;;;;;5115359;28;20043;-49
2023/09/23 00:58:26;;;;;;;23.63;6.40;;;;;;;;;;5115675;28;20477;-49
2023/09/23 01:00:54;;;;;;;18.42;6.35;;;;;;;;;;5115267;28;20054;-45
2023/09/23 01:03:22;;;;;;;21.33;7.00;;;;;;;;;;5115256;28;20034;-51
2023/09/23 01:06:08;;;;;;;18.73;5.95;;;;;;;;;;5115034;28;20515;-45
2023/09/23 01:08:38;;;;;;;20.35;6.00;;;;;;;;;;5115179;28;20507;-46
2023/09/23 01:11:09;;;;;;;21.27;6.65;;;;;;;;;;5115012;28;20508;-47
2023/09/23 01:13:37;;;;;;;18.45;6.15;;;;;;;;;;5114897;28;20065;-48
2023/09/23 01:16:12;;;;;;;18.30;5.35;;;;;;;;;;5114876;28;20390;-46
2023/09/23 01:18:40;;;;;;;22.98;6.40;;;;;;;;;;5114990;28;20032;-47
2023/09/23 01:21:08;;;;;;;21.33;5.93;;;;;;;;;;5114870;28;20037;-47
2023/09/23 01:23:39;;;;;;;17.67;5.90;;;;;;;;;;5114812;28;20552;-45
2023/09/23 01:26:06;;;;;;;16.17;4.85;;;;;;;;;;5111398;28;20471;-47
2023/09/23 01:28:33;;;;;;;19.73;5.00;;;;;;;;;;5114888;28;20031;-46
2023/09/23 01:31:02;;;;;;;15.48;4.47;;;;;;;;;;5114657;28;20028;-47
2023/09/23 01:33:29;;;;;;;17.45;5.20;;;;;;;;;;5114720;28;20035;-48
2023/09/23 01:36:02;;;;;;;14.65;4.90;;;;;;;;;;5114757;28;20699;-46
2023/09/23 01:38:33;;;;;;;16.13;5.32;;;;;;;;;;5114804;28;20039;-47
2023/09/23 01:41:00;;;;;;;16.15;5.15;;;;;;;;;;5114599;28;20026;-47
2023/09/23 01:43:27;;;;;;;17.70;4.78;;;;;;;;;;5114320;28;20069;-46
2023/09/23 01:46:02;;;;;;;12.40;4.80;;;;;;;;;;5114581;27;20031;-52
2023/09/23 01:48:29;;;;;;;16.00;4.35;;;;;;;;;;5113103;28;20035;-48
2023/09/23 01:51:00;;;;;;;21.95;4.70;;;;;;;;;;5113051;28;20062;-54
2023/09/23 01:53:28;;;;;;;13.40;4.13;;;;;;;;;;5095579;28;20040;-48
2023/09/23 01:55:55;;;;;;;13.77;3.83;;;;;;;;;;5098619;28;20086;-49
2023/09/23 01:58:22;;;;;;;11.25;3.85;;;;;;;;;;5113546;28;20080;-47
2023/09/23 02:00:51;;;;;;;14.70;4.60;;;;;;;;;;5113462;27;20036;-51
2023/09/23 02:03:18;;;;;;;14.40;4.03;;;;;;;;;;5102103;28;20028;-46
2023/09/23 02:05:47;;;;;;;17.80;4.25;;;;;;;;;;5102119;28;20038;-51
2023/09/23 02:08:15;;;;;;;10.57;3.78;;;;;;;;;;5097682;28;20035;-47
2023/09/23 02:10:46;;;;;;;14.82;4.30;;;;;;;;;;5101465;28;20044;-47
2023/09/23 02:13:13;;;;;;;14.82;3.83;;;;;;;;;;5097123;28;20024;-49
2023/09/23 02:15:40;;;;;;;12.68;3.90;;;;;;;;;;5102799;28;20027;-47
2023/09/23 02:18:07;;;;;;;12.85;3.50;;;;;;;;;;5103540;28;20115;-47
2023/09/23 02:20:34;;;;;;;10.80;3.53;;;;;;;;;;5113212;28;20028;-54
2023/09/23 02:23:02;;;;;;;12.25;3.60;;;;;;;;;;5108657;28;20028;-51
2023/09/23 02:25:30;;;;;;;13.52;3.95;;;;;;;;;;5095117;28;20040;-50
2023/09/23 02:27:57;;;;;;;10.02;3.65;;;;;;;;;;5101107;28;20833;-53
2023/09/23 02:30:25;;;;;;;10.85;3.28;;;;;;;;;;5102809;28;20033;-54
2023/09/23 02:32:52;;;;;;;11.55;3.67;;;;;;;;;;5103562;28;20394;-53
2023/09/23 02:35:19;;;;;;;13.05;3.78;;;;;;;;;;5098055;28;20090;-46
2023/09/23 02:37:50;;;;;;;8.77;3.10;;;;;;;;;;5091010;28;20111;-52
2023/09/23 02:40:18;;;;;;;15.13;3.40;;;;;;;;;;5098577;28;20032;-54
2023/09/23 02:42:46;;;;;;;10.15;2.90;;;;;;;;;;5102265;28;20033;-46
2023/09/23 02:45:15;;;;;;;12.60;3.35;;;;;;;;;;5103291;28;20035;-53
2023/09/23 02:47:43;;;;;;;9.05;3.08;;;;;;;;;;5101456;28;20512;-50
2023/09/23 02:50:13;;;;;;;12.18;3.00;;;;;;;;;;5101371;28;20040;-47
2023/09/23 02:52:53;;;;;;;12.40;3.00;;;;;;;;;;5101326;28;20085;-51
2023/09/23 02:55:20;;;;;;;9.95;3.03;;;;;;;;;;5101420;28;20031;-49
2023/09/23 02:57:54;;;;;;;8.68;2.75;;;;;;;;;;5101659;28;20032;-50
2023/09/23 03:00:24;;;;;;;13.20;3.15;;;;;;;;;;5101212;28;20114;-51
2023/09/23 03:02:55;;;;;;;9.20;2.70;;;;;;;;;;5100936;28;20397;-46
2023/09/23 03:05:26;;;;;;;10.63;2.60;;;;;;;;;;5101777;28;20034;-49
2023/09/23 03:07:57;;;;;;;9.70;3.03;;;;;;;;;;5101893;28;20050;-53
2023/09/23 03:10:39;;;;;;;10.45;2.80;;;;;;;;;;5101118;28;20028;-49
2023/09/23 03:13:11;;;;;;;9.82;2.63;;;;;;;;;;5092176;28;20066;-51
2023/09/23 03:15:48;;;;;;;9.52;2.67;;;;;;;;;;5092310;28;20077;-52
2023/09/23 03:18:15;;;;;;;7.65;2.83;;;;;;;;;;5092193;28;20386;-54
2023/09/23 03:20:42;;;;;;;6.13;1.83;;;;;;;;;;5091910;28;20436;-51
2023/09/23 03:23:12;;;;;;;8.80;2.53;;;;;;;;;;5092126;28;20077;-51
2023/09/23 03:25:45;;;;;;;11.52;2.85;;;;;;;;;;5091895;28;20080;-53
2023/09/23 03:28:16;;;;;;;8.95;2.40;;;;;;;;;;5091974;28;20044;-54
2023/09/23 03:30:48;;;;;;;8.60;2.47;;;;;;;;;;5092124;28;20032;-53
2023/09/23 03:33:18;;;;;;;8.82;2.70;;;;;;;;;;5091832;28;20101;-50
2023/09/23 03:35:45;;;;;;;6.85;2.35;;;;;;;;;;5091813;28;20036;-52
2023/09/23 03:38:13;;;;;;;6.70;2.42;;;;;;;;;;5092005;28;20024;-52
2023/09/23 03:40:40;;;;;;;9.70;2.67;;;;;;;;;;5090759;28;20402;-53
2023/09/23 03:43:07;;;;;;;9.45;2.55;;;;;;;;;;5091933;28;20031;-54
2023/09/23 03:45:38;;;;;;;14.77;2.50;;;;;;;;;;5091861;28;20028;-54
2023/09/23 03:48:06;;;;;;;11.45;2.60;;;;;;;;;;5091677;28;20036;-53
2023/09/23 03:50:33;;;;;;;9.15;2.80;;;;;;;;;;5091715;28;20036;-52
2023/09/23 03:53:00;;;;;;;8.35;2.45;;;;;;;;;;5091572;28;20078;-48
2023/09/23 03:55:27;;;;;;;10.38;3.10;;;;;;;;;;5091678;28;20398;-50
2023/09/23 03:57:54;;;;;;;8.30;2.47;;;;;;;;;;5091830;28;20035;-49
2023/09/23 04:00:26;;;;;;;8.40;2.47;;;;;;;;;;5091604;28;20111;-48
2023/09/23 04:02:54;;;;;;;11.32;2.22;;;;;;;;;;5091571;28;20546;-50
2023/09/23 04:05:23;;;;;;;9.85;2.40;;;;;;;;;;5091867;28;20031;-54
2023/09/23 04:07:51;;;;;;;10.15;2.13;;;;;;;;;;5091659;28;20524;-47
2023/09/23 04:10:19;;;;;;;7.93;2.10;;;;;;;;;;5091693;28;20493;-48
2023/09/23 04:12:46;;;;;;;7.45;2.17;;;;;;;;;;5091434;28;20034;-46
2023/09/23 04:15:14;;;;;;;8.27;2.53;;;;;;;;;;5091668;28;20028;-46
2023/09/23 04:17:41;;;;;;;6.10;2.08;;;;;;;;;;5091634;28;20036;-45
2023/09/23 04:20:15;;;;;;;11.10;2.17;;;;;;;;;;5091496;28;20443;-48
2023/09/23 04:22:42;;;;;;;9.00;2.53;;;;;;;;;;5091555;28;20016;-48
2023/09/23 04:25:10;;;;;;;8.65;2.20;;;;;;;;;;5091483;28;20028;-46
2023/09/23 04:27:38;;;;;;;8.93;2.60;;;;;;;;;;5091207;28;20062;-48
2023/09/23 04:30:11;;;;;;;9.20;2.03;;;;;;;;;;5091600;28;20031;-46
2023/09/23 04:32:42;;;;;;;7.32;2.08;;;;;;;;;;5091595;28;20478;-47
2023/09/23 04:35:11;;;;;;;6.20;2.00;;;;;;;;;;5091434;28;20023;-51
2023/09/23 04:37:39;;;;;;;5.68;2.13;;;;;;;;;;5091262;28;20043;-51
2023/09/23 04:40:10;;;;;;;5.72;2.03;;;;;;;;;;5091326;28;20036;-46
2023/09/23 04:42:41;;;;;;;7.15;2.22;;;;;;;;;;5091146;28;20036;-47
2023/09/23 04:45:09;;;;;;;7.75;1.92;;;;;;;;;;5091314;28;20446;-47
2023/09/23 04:47:36;;;;;;;6.20;1.90;;;;;;;;;;5091106;28;20048;-50
2023/09/23 04:50:07;;;;;;;7.75;2.35;;;;;;;;;;5091294;28;20087;-47
2023/09/23 04:52:34;;;;;;;8.90;1.83;;;;;;;;;;5092442;28;20036;-47
2023/09/23 04:55:02;;;;;;;3.65;1.67;;;;;;;;;;5095163;28;20035;-47
2023/09/23 04:57:29;;;;;;;6.57;2.25;;;;;;;;;;5094927;28;20063;-45
2023/09/23 04:59:57;;;;;;;5.30;2.17;;;;;;;;;;5094950;28;20032;-47
2023/09/23 05:02:25;;;;;;;5.22;1.90;;;;;;;;;;5094828;28;20039;-50
2023/09/23 05:04:55;;;;;;;7.25;2.25;;;;;;;;;;5094805;28;20028;-46
2023/09/23 05:07:26;;;;;;;5.70;2.30;;;;;;;;;;5094786;28;20036;-48
2023/09/23 05:09:57;;;;;;;3.83;1.75;;;;;;;;;;5094717;28;20047;-48
2023/09/23 05:12:24;;;;;;;7.20;2.45;;;;;;;;;;5094536;28;20103;-48
2023/09/23 05:14:51;;;;;;;4.15;1.80;;;;;;;;;;5094577;28;20038;-48
2023/09/23 05:17:19;;;;;;;5.22;1.80;;;;;;;;;;5094492;28;20484;-52
2023/09/23 05:19:49;;;;;;;4.63;1.98;;;;;;;;;;5094623;28;20030;-52
2023/09/23 05:22:16;;;;;;;4.63;2.10;;;;;;;;;;5094598;28;20028;-49
2023/09/23 05:24:47;;;;;;;6.88;2.20;;;;;;;;;;5094382;28;20090;-54
2023/09/23 05:27:17;;;;;;;12.07;1.63;;;;;;;;;;5094180;28;20040;-48
2023/09/23 05:29:45;;;;;;;5.88;2.00;;;;;;;;;;5094515;28;20024;-53
2023/09/23 05:32:12;;;;;;;4.55;1.73;;;;;;;;;;5094279;28;20028;-53
2023/09/23 05:34:39;;;;;;;4.38;1.52;;;;;;;;;;5094296;28;20028;-47
2023/09/23 05:37:11;;;;;;;4.82;2.00;;;;;;;;;;5094308;28;20030;-51
2023/09/23 05:39:40;;;;;;;4.88;2.10;;;;;;;;;;5094185;28;20393;-55
2023/09/23 05:42:07;;;;;;;4.18;1.83;;;;;;;;;;5094043;28;20040;-48
2023/09/23 05:44:34;;;;;;;4.05;1.60;;;;;;;;;;5094011;28;20025;-51
2023/09/23 05:47:02;;;;;;;4.45;1.92;;;;;;;;;;5094101;28;20085;-53
2023/09/23 05:49:29;;;;;;;5.95;2.20;;;;;;;;;;5093906;28;20411;-53
2023/09/23 05:51:56;;;;;;;4.55;1.90;;;;;;;;;;5094047;28;20026;-50
2023/09/23 05:54:23;;;;;;;4.63;1.77;;;;;;;;;;5093943;28;20048;-51
2023/09/23 05:56:50;;;;;;;3.53;1.83;;;;;;;;;;5093971;28;20055;-47
2023/09/23 05:59:17;;;;;;;6.70;2.00;;;;;;;;;;5093811;28;20024;-51
2023/09/23 06:01:44;;;;;;;3.25;1.55;;;;;;;;;;5092633;28;20101;-53
2023/09/23 06:04:11;;;;;;;3.60;1.48;;;;;;;;;;5092785;28;20031;-54
2023/09/23 06:06:38;;;;;;;3.38;1.70;;;;;;;;;;5093527;28;20040;-51
2023/09/23 06:09:06;;;;;;;5.15;1.70;;;;;;;;;;5093697;28;20028;-52
2023/09/23 06:11:33;;;;;;;3.90;1.65;;;;;;;;;;5093663;28;20036;-50
2023/09/23 06:14:00;;;;;;;4.18;1.63;;;;;;;;;;5093447;28;20040;-49
2023/09/23 06:16:27;;;;;;;6.85;1.73;;;;;;;;;;5093461;28;20059;-47
2023/09/23 06:18:54;;;;;;;4.90;1.58;;;;;;;;;;5093512;28;20024;-45
2023/09/23 06:21:21;;;;;;;3.05;1.30;;;;;;;;;;5093447;28;20024;-45
2023/09/23 06:23:48;;;;;;;3.80;1.77;;;;;;;;;;5093479;28;20082;-45
2023/09/23 06:26:16;;;;;;;5.07;1.55;;;;;;;;;;5093143;28;20119;-45
2023/09/23 06:28:43;;;;;;;4.93;1.90;;;;;;;;;;5093069;28;20032;-46
2023/09/23 06:31:10;;;;;;;3.25;1.60;;;;;;;;;;5093253;28;20032;-46
2023/09/23 06:33:37;;;;;;;2.60;1.27;;;;;;;;;;5092995;28;20040;-45
2023/09/23 06:36:05;;;;;;;5.35;2.00;;;;;;;;;;5092962;28;20149;-47
2023/09/23 06:38:33;;;;;;;2.65;1.50;;;;;;;;;;5093000;28;20035;-49
2023/09/23 06:41:00;;;;;;;4.45;1.60;;;;;;;;;;5092993;28;20482;-47
2023/09/23 06:43:28;;;;;;;5.90;2.03;;;;;;;;;;5092855;28;20110;-46
2023/09/23 06:45:59;;;;;;;5.95;1.85;;;;;;;;;;5092754;28;20478;-47
2023/09/23 06:48:26;;;;;;;3.85;1.45;;;;;;;;;;5092952;28;20036;-47
2023/09/23 06:51:00;;;;;;;3.97;1.45;;;;;;;;;;5092770;28;20028;-47
2023/09/23 06:53:28;;;;;;;2.75;1.35;;;;;;;;;;5092665;28;20420;-47
2023/09/23 06:55:55;;;;;;;4.28;1.33;;;;;;;;;;5092623;28;20073;-47
2023/09/23 06:58:22;;;;;;;2.72;1.40;;;;;;;;;;5092592;28;20028;-48
2023/09/23 07:00:49;;;;;;;2.83;1.50;;;;;;;;;;5092691;28;20077;-50
2023/09/23 07:03:16;;;;;;;5.88;1.83;;;;;;;;;;5092595;28;20024;-47
2023/09/23 07:05:43;;;;;;;5.35;1.65;;;;;;;;;;5092411;28;20024;-46
2023/09/23 07:08:10;;;;;;;2.70;1.50;;;;;;;;;;5092543;28;20028;-47
2023/09/23 07:10:38;;;;;;;8.18;1.95;;;;;;;;;;5092383;28;20027;-46
2023/09/23 07:13:05;;;;;;;3.85;1.35;;;;;;;;;;5092382;28;20111;-48
2023/09/23 07:15:38;;;;;;;3.20;1.42;;;;;;;;;;5092313;28;20036;-45
2023/09/23 07:18:05;;;;;;;5.28;1.38;;;;;;;;;;5092177;28;20042;-46
2023/09/23 07:20:33;;;;;;;3.80;1.88;;;;;;;;;;5092362;28;20482;-49
2023/09/23 07:23:00;;;;;;;3.38;1.50;;;;;;;;;;5092074;28;20052;-52
2023/09/23 07:25:30;;;;;;;2.83;1.58;;;;;;;;;;5091946;28;20032;-48
2023/09/23 07:28:00;;;;;;;3.58;1.45;;;;;;;;;;5092164;28;20032;-48
2023/09/23 07:30:27;;;;;;;6.07;1.55;;;;;;;;;;5091950;28;20230;-54
2023/09/23 07:32:54;;;;;;;2.90;1.33;;;;;;;;;;5091958;28;20032;-52
2023/09/23 07:35:21;;;;;;;2.42;1.30;;;;;;;;;;5092123;28;20054;-53
2023/09/23 07:37:48;;;;;;;2.40;1.40;;;;;;;;;;5092090;28;20039;-49
2023/09/23 07:40:15;;;;;;;3.22;1.52;;;;;;;;;;5091926;28;20099;-52
2023/09/23 07:42:42;;;;;;;3.58;1.48;;;;;;;;;;5091854;28;20024;-54
2023/09/23 07:45:09;;;;;;;3.10;1.50;;;;;;;;;;5091990;28;20040;-52
2023/09/23 07:47:36;;;;;;;4.28;1.60;;;;;;;;;;5091923;28;20040;-52
2023/09/23 07:50:04;;;;;;;3.30;1.33;;;;;;;;;;5091918;28;20030;-48
2023/09/23 07:52:34;;;;;;;4.65;1.60;;;;;;;;;;5091787;28;20024;-48
2023/09/23 07:55:02;;;;;;;11.25;1.65;;;;;;;;;;5091976;28;20055;-51
2023/09/23 07:57:29;;;;;;;3.38;1.35;;;;;;;;;;5091746;28;20098;-48
2023/09/23 07:59:56;;;;;;;4.53;1.38;;;;;;;;;;5091824;28;20077;-49
2023/09/23 08:02:23;;;;;;;3.53;1.48;;;;;;;;;;5091564;28;20474;-50
2023/09/23 08:04:50;;;;;;;3.50;1.40;;;;;;;;;;5091722;28;20048;-48
2023/09/23 08:07:17;;;;;;;4.00;1.60;;;;;;;;;;5091637;28;20039;-52
2023/09/23 08:09:44;;;;;;;6.75;1.70;;;;;;;;;;5091719;28;20020;-48
2023/09/23 08:12:11;;;;;;;3.72;1.40;;;;;;;;;;5091575;28;20094;-50
2023/09/23 08:14:38;;;;;;;3.88;1.58;;;;;;;;;;5091700;28;20028;-50
2023/09/23 08:17:05;;;;;;;2.35;1.40;;;;;;;;;;5091516;28;20089;-50
2023/09/23 08:19:32;;;;;;;2.42;1.40;;;;;;;;;;5091596;28;20040;-49
2023/09/23 08:21:59;;;;;;;3.30;1.30;;;;;;;;;;5091599;28;20031;-47
2023/09/23 08:24:25;;;;;;;3.47;1.52;;;;;;;;;;5091471;28;20032;-49
2023/09/23 08:26:53;;;;;;;3.00;1.02;;;;;;;;;;5092898;28;20052;-51
2023/09/23 08:29:20;;;;;;;2.75;1.30;;;;;;;;;;5095531;28;20028;-48
2023/09/23 08:31:47;;;;;;;3.00;1.33;;;;;;;;;;5095592;28;20119;-45
2023/09/23 08:34:14;;;;;;;3.30;1.52;;;;;;;;;;5095483;28;20024;-45
2023/09/23 08:36:41;;;;;;;3.63;1.70;;;;;;;;;;5095495;28;20070;-44
2023/09/23 08:39:09;;;;;;;3.63;1.50;;;;;;;;;;5095438;28;20040;-45
2023/09/23 08:41:37;;;;;;;4.15;1.67;;;;;;;;;;5095588;28;20466;-45
2023/09/23 08:44:07;;;;;;;2.63;1.30;;;;;;;;;;5095252;28;20054;-46
2023/09/23 08:46:34;;;;;;;3.30;1.48;;;;;;;;;;5095237;28;20054;-47
2023/09/23 08:49:03;;;;;;;4.25;1.30;;;;;;;;;;5095120;28;20035;-47
2023/09/23 08:51:31;;;;;;;3.20;1.40;;;;;;;;;;5095053;28;20389;-47
2023/09/23 08:53:58;;;;;;;3.65;1.33;;;;;;;;;;5095039;28;20054;-46
2023/09/23 08:56:25;;;;;;;4.30;1.30;;;;;;;;;;5095025;28;20071;-46
2023/09/23 08:58:52;;;;;;;2.75;1.10;;;;;;;;;;5095048;28;20462;-45
2023/09/23 09:01:19;;;;;;;4.90;1.55;;;;;;;;;;5095018;28;20080;-49
2023/09/23 09:03:47;;;;;;;3.83;1.27;;;;;;;;;;5094879;28;20024;-45
2023/09/23 09:06:17;;;;;;;3.75;1.42;;;;;;;;;;5094726;28;20036;-46
2023/09/23 09:08:45;;;;;;;3.15;1.15;;;;;;;;;;5094848;28;20020;-49
2023/09/23 09:11:12;;;;;;;3.40;1.48;;;;;;;;;;5094786;28;20024;-49
2023/09/23 09:13:39;;;;;;;3.10;1.00;;;;;;;;;;5094513;28;20036;-48
2023/09/23 09:16:07;;;;;;;4.28;1.45;;;;;;;;;;5094608;28;20032;-46
2023/09/23 09:18:34;;;;;;;2.97;1.15;;;;;;;;;;5094540;28;20024;-50
2023/09/23 09:21:01;;;;;;;2.45;1.38;;;;;;;;;;5094653;28;20047;-52
2023/09/23 09:23:29;;;;;;;2.60;1.27;;;;;;;;;;5094527;28;20024;-53
2023/09/23 09:25:56;;;;;;;3.25;1.10;;;;;;;;;;5094148;28;20051;-49
2023/09/23 09:28:24;;;;;;;2.03;1.10;;;;;;;;;;5094533;28;20067;-52
2023/09/23 09:30:56;;;;;;;3.20;1.40;;;;;;;;;;5094433;28;20028;-48
2023/09/23 09:33:27;;;;;;;3.00;1.20;;;;;;;;;;5094260;28;20102;-50
2023/09/23 09:35:57;;;;;;;2.15;1.02;;;;;;;;;;5094334;28;20020;-47
2023/09/23 09:38:25;;;;;;;3.80;1.38;;;;;;;;;;5092988;28;20028;-51
2023/09/23 09:41:03;;;;;;;3.22;1.20;;;;;;;;;;5094092;28;20032;-50
2023/09/23 09:43:33;;;;;;;3.03;1.45;;;;;;;;;;5094071;28;20481;-48
2023/09/23 09:46:08;;;;;;;4.00;1.40;;;;;;;;;;5093957;28;20031;-54
2023/09/23 09:48:41;;;;;;;2.92;1.33;;;;;;;;;;5094273;28;20063;-51
2023/09/23 09:51:16;;;;;;;2.92;1.15;;;;;;;;;;5093909;28;20111;-51
2023/09/23 09:53:45;;;;;;;2.08;1.05;;;;;;;;;;5093768;28;20040;-51
2023/09/23 09:56:13;;;;;;;3.33;1.25;;;;;;;;;;5094164;28;20448;-51
2023/09/23 09:58:42;;;;;;;3.53;1.38;;;;;;;;;;5093922;28;20028;-55
2023/09/23 10:01:11;;;;;;;4.40;1.35;;;;;;;;;;5093782;28;20039;-54
2023/09/23 10:03:38;;;;;;;3.80;1.40;;;;;;;;;;5093641;28;20042;-53
2023/09/23 10:06:07;;;;;;;4.65;1.60;;;;;;;;;;5093779;28;20020;-54
2023/09/23 10:08:38;;;;;;;2.38;1.27;;;;;;;;;;5093619;28;20036;-54
2023/09/23 10:11:09;;;;;;;4.43;1.38;;;;;;;;;;5093600;28;20426;-50
2023/09/23 10:13:36;;;;;;;3.67;1.58;;;;;;;;;;5093430;28;20143;-49
2023/09/23 10:16:07;;;;;;;4.00;1.60;;;;;;;;;;5093600;28;20020;-49
2023/09/23 10:18:39;;;;;;;4.22;1.27;;;;;;;;;;5093741;28;20073;-47
2023/09/23 10:21:07;;;;;;;3.92;1.35;;;;;;;;;;5097766;28;20050;-50
2023/09/23 10:23:35;;;;;;;3.28;1.35;;;;;;;;;;5113601;28;20035;-54
2023/09/23 10:26:23;;;;;;;3.88;1.27;;;;;;;;;;5111842;28;20450;-47
2023/09/23 10:29:00;;;;;;;3.78;1.50;;;;;;;;;;5093150;28;20040;-50
2023/09/23 10:31:28;;;;;;;3.10;1.17;;;;;;;;;;5093098;28;20055;-51
2023/09/23 10:33:55;;;;;;;2.88;1.30;;;;;;;;;;5092959;28;20077;-51
2023/09/23 10:36:23;;;;;;;3.55;1.48;;;;;;;;;;5092940;28;20039;-52
2023/09/23 10:38:50;;;;;;;3.22;1.20;;;;;;;;;;5093123;28;20115;-51
2023/09/23 10:41:17;;;;;;;5.78;1.40;;;;;;;;;;5093052;28;20031;-50
2023/09/23 10:43:53;;;;;;;3.03;1.33;;;;;;;;;;5092792;28;20032;-50
2023/09/23 10:46:20;;;;;;;3.03;1.02;;;;;;;;;;5092716;28;20031;-49
2023/09/23 10:48:47;;;;;;;3.45;1.23;;;;;;;;;;5092608;28;20086;-54
2023/09/23 10:51:14;;;;;;;2.97;1.40;;;;;;;;;;5092687;28;20032;-48
2023/09/23 10:53:42;;;;;;;2.95;1.20;;;;;;;;;;5092761;28;20032;-55
2023/09/23 10:56:10;;;;;;;2.67;1.13;;;;;;;;;;5092561;28;20032;-52
2023/09/23 10:58:38;;;;;;;2.95;1.20;;;;;;;;;;5092563;28;20039;-48
2023/09/23 11:01:05;;;;;;;2.65;1.20;;;;;;;;;;5092564;28;20036;-50
2023/09/23 11:03:42;;;;;;;2.67;1.00;;;;;;;;;;5092599;28;20024;-52
2023/09/23 11:06:09;;;;;;;4.72;1.33;;;;;;;;;;5092527;28;20440;-50
2023/09/23 11:08:36;;;;;;;4.57;1.77;;;;;;;;;;5092565;28;20093;-51
2023/09/23 11:11:03;;;;;;;4.30;1.30;;;;;;;;;;5092337;28;20032;-55
2023/09/23 11:13:32;;;;;;;2.85;1.30;;;;;;;;;;5092366;28;20103;-54
2023/09/23 11:15:59;;;;;;;2.55;1.20;;;;;;;;;;5092444;28;20027;-52
2023/09/23 11:18:28;;;;;;;2.45;1.23;;;;;;;;;;5092388;28;20032;-49
2023/09/23 11:20:55;;;;;;;4.10;1.40;;;;;;;;;;5092177;28;20066;-51
2023/09/23 11:23:29;;;;;;;3.03;1.27;;;;;;;;;;5091938;28;20111;-52
2023/09/23 11:25:56;;;;;;;3.65;1.45;;;;;;;;;;5091884;28;20048;-51
2023/09/23 11:28:28;;;;;;;3.33;1.48;;;;;;;;;;5092271;28;20024;-52
2023/09/23 11:30:56;;;;;;;4.28;1.27;;;;;;;;;;5092179;28;20496;-48
2023/09/23 11:33:25;;;;;;;2.70;1.15;;;;;;;;;;5091891;28;20058;-49
2023/09/23 11:35:53;;;;;;;2.40;1.10;;;;;;;;;;5091959;28;20032;-47
2023/09/23 11:38:20;;;;;;;2.58;1.15;;;;;;;;;;5092121;28;20027;-49
2023/09/23 11:40:48;;;;;;;2.55;1.20;;;;;;;;;;5092023;28;20028;-46
2023/09/23 11:43:15;;;;;;;3.03;1.40;;;;;;;;;;5091803;28;20036;-48
2023/09/23 11:45:43;;;;;;;3.22;1.25;;;;;;;;;;5092132;28;20542;-46
2023/09/23 11:48:10;;;;;;;3.78;1.20;;;;;;;;;;5091661;28;20059;-49
2023/09/23 11:50:37;;;;;;;3.10;1.10;;;;;;;;;;5091765;28;20020;-45
2023/09/23 11:53:04;;;;;;;2.00;1.02;;;;;;;;;;5091584;28;20024;-47
2023/09/23 11:55:32;;;;;;;4.13;1.17;;;;;;;;;;5091749;28;20020;-51
2023/09/23 11:58:00;;;;;;;4.35;1.30;;;;;;;;;;5096904;28;20450;-47
2023/09/23 12:00:28;;;;;;;5.50;1.30;;;;;;;;;;5100064;28;20031;-47
2023/09/23 12:02:55;;;;;;;4.57;1.30;;;;;;;;;;5108537;28;20065;-48
2023/09/23 12:05:28;;;;;;;20.98;1.77;;;;;;;;;;5106790;28;20119;-59
2023/09/23 12:07:58;;;;;;;19.13;2.10;;;;;;;;;;5103394;28;20035;-43
2023/09/23 12:10:27;;;;;;;27.80;2.22;;;;;;;;;;5105239;28;20039;-46
2023/09/23 12:12:56;;;;;;;25.45;2.53;;;;;;;;;;5110037;28;20027;-46
2023/09/23 12:15:23;;;;;;;23.75;3.00;;;;;;;;;;5100943;28;20027;-58
2023/09/23 12:17:50;;;;;;;19.38;2.08;;;;;;;;;;5099012;28;20016;-53
2023/09/23 12:20:18;;;;;;;15.35;2.53;;;;;;;;;;5086280;28;20031;-53
2023/09/23 12:22:45;;;;;;;16.80;2.47;;;;;;;;;;5096028;28;20065;-53
2023/09/23 12:25:14;;;;;;;26.48;2.83;;;;;;;;;;5098856;28;20020;-45
2023/09/23 12:27:41;;;;;;;20.70;2.88;;;;;;;;;;5095392;28;20095;-54
2023/09/23 12:30:08;;;;;;;20.17;2.72;;;;;;;;;;5096662;28;20027;-54
2023/09/23 12:32:35;;;;;;;18.80;2.95;;;;;;;;;;5098151;28;20058;-56
2023/09/23 12:35:03;;;;;;;34.97;3.50;;;;;;;;;;5100011;28;20062;-41
2023/09/23 12:37:30;;;;;;;21.73;3.45;;;;;;;;;;5099290;28;20089;-58
2023/09/23 12:39:57;;;;;;;24.38;3.47;;;;;;;;;;5098477;28;20028;-49
2023/09/23 12:42:24;;;;;;;19.08;2.58;;;;;;;;;;5098236;28;20415;-52
2023/09/23 12:44:51;;;;;;;23.42;2.80;;;;;;;;;;5097301;28;20382;-47
2023/09/23 12:47:18;;;;;;;19.50;2.80;;;;;;;;;;5098435;28;20040;-48
2023/09/23 12:49:46;;;;;;;16.40;2.50;;;;;;;;;;5106844;28;20385;-49
2023/09/23 12:52:13;;;;;;;19.83;3.35;;;;;;;;;;5101179;28;20030;-43
2023/09/23 12:54:40;;;;;;;29.45;3.17;;;;;;;;;;5107455;28;20125;-47
2023/09/23 12:57:07;;;;;;;22.25;2.60;;;;;;;;;;5108633;28;20036;-53
2023/09/23 12:59:34;;;;;;;14.23;2.92;;;;;;;;;;5109877;28;20670;-46
2023/09/23 13:02:01;;;;;;;120.97;7.25;;;;;;;;;;5110824;28;20097;-43
2023/09/23 13:04:28;;;;;;;38.75;3.40;;;;;;;;;;5102752;28;20038;-45
2023/09/23 13:06:55;;;;;;;20.77;4.03;;;;;;;;;;5100136;28;20669;-50
2023/09/23 13:09:22;;;;;;;13.50;2.88;;;;;;;;;;5109089;28;20069;-49
2023/09/23 13:11:50;;;;;;;25.95;2.90;;;;;;;;;;5088365;28;20044;-53
2023/09/23 13:14:19;;;;;;;20.73;3.03;;;;;;;;;;5093959;28;20032;-48
2023/09/23 13:16:46;;;;;;;22.67;2.92;;;;;;;;;;5093969;28;20039;-49
2023/09/23 13:19:15;;;;;;;17.52;3.05;;;;;;;;;;5089303;28;20076;-51
2023/09/23 13:21:42;;;;;;;16.17;2.35;;;;;;;;;;5092076;28;20039;-49
2023/09/23 13:24:09;;;;;;;26.00;3.47;;;;;;;;;;5094391;28;20034;-50
2023/09/23 13:26:36;;;;;;;15.73;2.60;;;;;;;;;;5094270;28;20054;-48
2023/09/23 13:29:03;;;;;;;16.10;2.63;;;;;;;;;;5094548;28;20451;-52
2023/09/23 13:31:30;;;;;;;16.85;2.92;;;;;;;;;;5090016;28;20024;-47
2023/09/23 13:33:57;;;;;;;17.17;2.60;;;;;;;;;;5094131;28;20024;-50
2023/09/23 13:36:24;;;;;;;12.68;2.60;;;;;;;;;;5092948;28;20134;-50
2023/09/23 13:38:52;;;;;;;16.42;2.72;;;;;;;;;;5094333;28;20062;-47
2023/09/23 13:41:19;;;;;;;13.75;2.08;;;;;;;;;;5093337;28;20028;-50
2023/09/23 13:43:46;;;;;;;17.52;3.25;;;;;;;;;;5090413;28;20565;-49
2023/09/23 13:46:13;;;;;;;10.60;2.63;;;;;;;;;;5093979;28;20099;-52
2023/09/23 13:48:40;;;;;;;15.98;2.78;;;;;;;;;;5093686;28;20567;-50
2023/09/23 13:51:08;;;;;;;11.15;2.38;;;;;;;;;;5094047;28;20579;-47
2023/09/23 13:53:35;;;;;;;8.77;2.05;;;;;;;;;;5091949;28;20036;-51
2023/09/23 13:56:02;;;;;;;14.48;2.50;;;;;;;;;;5091059;28;20028;-50
2023/09/23 13:58:29;;;;;;;9.77;2.08;;;;;;;;;;5093882;28;20451;-51
2023/09/23 14:00:56;;;;;;;13.43;2.50;;;;;;;;;;5093763;28;20028;-49
2023/09/23 14:03:23;;;;;;;11.85;2.42;;;;;;;;;;5093628;28;20039;-50
2023/09/23 14:05:50;;;;;;;8.55;2.35;;;;;;;;;;5091577;28;20425;-47
2023/09/23 14:08:17;;;;;;;12.23;2.53;;;;;;;;;;5091210;28;20039;-48
2023/09/23 14:10:44;;;;;;;7.28;2.03;;;;;;;;;;5093643;28;20020;-48
2023/09/23 14:13:11;;;;;;;8.25;2.30;;;;;;;;;;5093566;28;20024;-49
2023/09/23 14:15:38;;;;;;;8.07;2.30;;;;;;;;;;5093183;28;20047;-49
2023/09/23 14:18:05;;;;;;;11.05;2.00;;;;;;;;;;5089703;28;20036;-47
2023/09/23 14:20:32;;;;;;;10.05;2.50;;;;;;;;;;5091652;28;20052;-49
2023/09/23 14:23:00;;;;;;;7.55;1.90;;;;;;;;;;5092788;28;20095;-47
2023/09/23 14:25:27;;;;;;;11.02;2.00;;;;;;;;;;5092130;28;20036;-50
2023/09/23 14:27:54;;;;;;;7.28;2.10;;;;;;;;;;5093221;28;20070;-48
2023/09/23 14:30:21;;;;;;;12.50;2.22;;;;;;;;;;5089481;28;20052;-47
2023/09/23 14:32:48;;;;;;;10.95;2.05;;;;;;;;;;5092312;28;20500;-49
2023/09/23 14:35:15;;;;;;;7.22;2.33;;;;;;;;;;5092899;28;20570;-46
2023/09/23 14:37:44;;;;;;;6.70;2.20;;;;;;;;;;5093018;28;20045;-52
2023/09/23 14:40:12;;;;;;;4.30;1.75;;;;;;;;;;5092805;28;20024;-47
2023/09/23 14:42:39;;;;;;;7.57;2.10;;;;;;;;;;5088209;28;20040;-47
2023/09/23 14:45:06;;;;;;;8.82;2.10;;;;;;;;;;5093026;28;20028;-47